Time;durP1;ratioP1;P1;durP2;ratioP2;P2;SDS_P1;SDS_P2;PMS_P1;PMS_P2;Temp;Humidity;BMP_temperature;BMP_pressure;BME280_temperature;BME280_humidity;BME280_pressure;Samples;Min_cycle;Max_cycle;Signal;HPM_P1;HPM_P2
2023/12/03 00:01:49;;;;;;;0.10;0.10;;;;;;;;;;4989104;28;20142;-76
2023/12/03 00:04:15;;;;;;;2.28;1.55;;;;;;;;;;4972358;28;20134;-76
2023/12/03 00:06:42;;;;;;;0.10;0.10;;;;;;;;;;4983084;28;20058;-78
2023/12/03 00:09:09;;;;;;;0.10;0.10;;;;;;;;;;4980910;28;20537;-77
2023/12/03 00:11:36;;;;;;;0.10;0.10;;;;;;;;;;4978525;28;20864;-76
2023/12/03 00:14:02;;;;;;;0.10;0.10;;;;;;;;;;4987963;28;20146;-78
2023/12/03 00:16:28;;;;;;;1.10;1.10;;;;;;;;;;4972358;28;20593;-76
2023/12/03 00:18:56;;;;;;;3.75;2.25;;;;;;;;;;4977076;28;20524;-76
2023/12/03 00:21:22;;;;;;;0.10;0.10;;;;;;;;;;4990045;28;20081;-76
2023/12/03 00:23:49;;;;;;;0.20;0.20;;;;;;;;;;4976630;28;20062;-77
2023/12/03 00:26:15;;;;;;;0.20;0.20;;;;;;;;;;4973283;28;20059;-76
2023/12/03 00:28:41;;;;;;;0.30;0.30;;;;;;;;;;4978054;28;20055;-76
2023/12/03 00:31:08;;;;;;;0.17;0.17;;;;;;;;;;4986279;28;20058;-76
2023/12/03 00:33:34;;;;;;;0.25;0.25;;;;;;;;;;4979627;28;20155;-75
2023/12/03 00:36:01;;;;;;;0.10;0.10;;;;;;;;;;4977528;28;20051;-74
2023/12/03 00:38:27;;;;;;;4.13;2.45;;;;;;;;;;4988229;28;20913;-75
2023/12/03 00:40:54;;;;;;;1.00;1.00;;;;;;;;;;4980161;28;20062;-76
2023/12/03 00:43:21;;;;;;;0.20;0.20;;;;;;;;;;4971020;28;20538;-76
2023/12/03 00:45:50;;;;;;;0.10;0.10;;;;;;;;;;4983329;28;20134;-75
2023/12/03 00:48:16;;;;;;;0.10;0.10;;;;;;;;;;4969933;28;20134;-76
2023/12/03 00:50:43;;;;;;;0.10;0.10;;;;;;;;;;4973527;28;20528;-76
2023/12/03 00:53:09;;;;;;;0.10;0.10;;;;;;;;;;4984699;28;20054;-78
2023/12/03 00:55:35;;;;;;;0.10;0.10;;;;;;;;;;4989773;28;20089;-76
2023/12/03 00:58:02;;;;;;;0.15;0.15;;;;;;;;;;4979562;28;20061;-76
2023/12/03 01:00:31;;;;;;;0.10;0.10;;;;;;;;;;4970105;28;20097;-76
2023/12/03 01:02:57;;;;;;;0.00;0.00;;;;;;;;;;4981678;28;20086;-76
2023/12/03 01:05:24;;;;;;;0.10;0.10;;;;;;;;;;4972184;28;20684;-76
2023/12/03 01:07:51;;;;;;;0.10;0.10;;;;;;;;;;4982737;28;20055;-77
2023/12/03 01:10:18;;;;;;;0.10;0.10;;;;;;;;;;4978088;28;20070;-76
2023/12/03 01:12:45;;;;;;;0.10;0.10;;;;;;;;;;4980792;28;20149;-76
2023/12/03 01:15:11;;;;;;;0.73;0.73;;;;;;;;;;4988116;28;20065;-78
2023/12/03 01:17:40;;;;;;;0.10;0.10;;;;;;;;;;4980989;28;20110;-76
2023/12/03 01:20:07;;;;;;;0.10;0.10;;;;;;;;;;5076310;23;20547;-74
2023/12/03 01:22:33;;;;;;;0.47;0.45;;;;;;;;;;5025065;28;20065;-74
2023/12/03 01:25:00;;;;;;;0.10;0.10;;;;;;;;;;5023457;28;20096;-74
2023/12/03 01:27:26;;;;;;;0.50;0.50;;;;;;;;;;5025357;28;20089;-74
2023/12/03 01:29:53;;;;;;;1.30;1.20;;;;;;;;;;5024333;28;20046;-74
2023/12/03 01:32:20;;;;;;;6.72;3.30;;;;;;;;;;5027052;28;20064;-74
2023/12/03 01:34:46;;;;;;;0.10;0.10;;;;;;;;;;5027284;28;20912;-74
2023/12/03 01:37:12;;;;;;;0.10;0.10;;;;;;;;;;5026974;28;20101;-74
2023/12/03 01:39:39;;;;;;;0.45;0.45;;;;;;;;;;5018121;28;20104;-74
2023/12/03 01:42:05;;;;;;;0.10;0.10;;;;;;;;;;5023237;28;20595;-74
2023/12/03 01:44:32;;;;;;;0.10;0.10;;;;;;;;;;5025600;28;20065;-74
2023/12/03 01:46:59;;;;;;;0.10;0.10;;;;;;;;;;5028712;28;20136;-74
2023/12/03 01:49:25;;;;;;;0.75;0.75;;;;;;;;;;5026205;28;20054;-74
2023/12/03 01:51:52;;;;;;;0.10;0.10;;;;;;;;;;5024616;28;20053;-74
2023/12/03 01:54:19;;;;;;;0.68;0.68;;;;;;;;;;5026530;28;20061;-73
2023/12/03 01:56:46;;;;;;;0.10;0.10;;;;;;;;;;5024968;28;20054;-74
2023/12/03 01:59:13;;;;;;;0.10;0.10;;;;;;;;;;5018702;28;20053;-74
2023/12/03 02:01:39;;;;;;;0.10;0.10;;;;;;;;;;5026676;28;20054;-74
2023/12/03 02:04:06;;;;;;;1.45;1.35;;;;;;;;;;5029413;28;20058;-74
2023/12/03 02:06:32;;;;;;;0.10;0.10;;;;;;;;;;5029920;28;20054;-74
2023/12/03 02:08:59;;;;;;;0.13;0.13;;;;;;;;;;5030494;28;20209;-74
2023/12/03 02:11:26;;;;;;;0.10;0.10;;;;;;;;;;5026329;28;20146;-74
2023/12/03 02:13:52;;;;;;;0.10;0.10;;;;;;;;;;5030285;28;20116;-74
2023/12/03 02:16:21;;;;;;;0.10;0.10;;;;;;;;;;5030350;28;20066;-74
2023/12/03 02:18:48;;;;;;;0.10;0.10;;;;;;;;;;4992507;28;20137;-74
2023/12/03 02:21:14;;;;;;;0.10;0.10;;;;;;;;;;5026745;28;20058;-74
2023/12/03 02:23:41;;;;;;;0.10;0.10;;;;;;;;;;5030129;28;20057;-74
2023/12/03 02:26:07;;;;;;;0.10;0.10;;;;;;;;;;5028987;28;20054;-74
2023/12/03 02:28:34;;;;;;;0.10;0.10;;;;;;;;;;5029719;28;20760;-74
2023/12/03 02:31:00;;;;;;;0.13;0.13;;;;;;;;;;5028982;28;20064;-74
2023/12/03 02:33:27;;;;;;;0.10;0.10;;;;;;;;;;5029018;28;20539;-74
2023/12/03 02:35:54;;;;;;;0.10;0.10;;;;;;;;;;5023325;28;20046;-74
2023/12/03 02:38:20;;;;;;;0.10;0.10;;;;;;;;;;5030166;28;20149;-74
2023/12/03 02:40:46;;;;;;;0.10;0.10;;;;;;;;;;5029419;28;20108;-74
2023/12/03 02:43:13;;;;;;;0.10;0.10;;;;;;;;;;5027997;28;20076;-74
2023/12/03 02:45:39;;;;;;;0.10;0.10;;;;;;;;;;5029602;28;20060;-74
2023/12/03 02:48:06;;;;;;;0.10;0.10;;;;;;;;;;5018200;28;20120;-74
2023/12/03 02:50:32;;;;;;;0.10;0.10;;;;;;;;;;5029230;28;20054;-74
2023/12/03 02:52:59;;;;;;;0.10;0.10;;;;;;;;;;5025076;28;20452;-74
2023/12/03 02:55:25;;;;;;;0.10;0.10;;;;;;;;;;5028733;28;20050;-74
2023/12/03 02:57:51;;;;;;;0.10;0.10;;;;;;;;;;5028455;28;20061;-74
2023/12/03 03:00:18;;;;;;;0.10;0.10;;;;;;;;;;5025561;28;20050;-74
2023/12/03 03:02:45;;;;;;;0.13;0.13;;;;;;;;;;5028271;28;20512;-74
2023/12/03 03:05:11;;;;;;;0.10;0.10;;;;;;;;;;5029733;28;20583;-74
2023/12/03 03:07:37;;;;;;;0.52;0.52;;;;;;;;;;5029393;28;20128;-74
2023/12/03 03:10:04;;;;;;;0.10;0.10;;;;;;;;;;5029609;28;20060;-74
2023/12/03 03:12:30;;;;;;;0.10;0.10;;;;;;;;;;5027747;28;20058;-74
2023/12/03 03:14:57;;;;;;;0.10;0.10;;;;;;;;;;5027967;28;20527;-74
2023/12/03 03:17:23;;;;;;;0.10;0.10;;;;;;;;;;5028849;28;20058;-74
2023/12/03 03:19:50;;;;;;;0.10;0.10;;;;;;;;;;5020978;28;20042;-74
2023/12/03 03:22:16;;;;;;;1.63;1.52;;;;;;;;;;5029155;28;20058;-74
2023/12/03 03:24:42;;;;;;;0.10;0.10;;;;;;;;;;5029384;28;20050;-74
2023/12/03 03:27:09;;;;;;;0.10;0.10;;;;;;;;;;5027969;28;20153;-74
2023/12/03 03:29:35;;;;;;;0.10;0.10;;;;;;;;;;5011957;28;20061;-74
2023/12/03 03:32:02;;;;;;;0.10;0.10;;;;;;;;;;5028653;28;20914;-74
2023/12/03 03:34:28;;;;;;;0.10;0.10;;;;;;;;;;5028911;28;20124;-74
2023/12/03 03:36:55;;;;;;;0.20;0.20;;;;;;;;;;5029043;28;20058;-74
2023/12/03 03:39:21;;;;;;;0.40;0.40;;;;;;;;;;5029710;28;20061;-74
2023/12/03 03:41:48;;;;;;;0.10;0.10;;;;;;;;;;5026329;28;20897;-74
2023/12/03 03:44:14;;;;;;;0.17;0.17;;;;;;;;;;5027381;28;20058;-74
2023/12/03 03:46:41;;;;;;;1.10;1.08;;;;;;;;;;5027913;28;20050;-74
2023/12/03 03:49:07;;;;;;;0.10;0.10;;;;;;;;;;5024162;28;20058;-74
2023/12/03 03:51:34;;;;;;;0.20;0.20;;;;;;;;;;5026140;28;20057;-73
2023/12/03 03:54:00;;;;;;;0.20;0.20;;;;;;;;;;5030322;28;20050;-74
2023/12/03 03:56:26;;;;;;;0.10;0.10;;;;;;;;;;5030402;28;20541;-74
2023/12/03 03:58:53;;;;;;;4.18;2.25;;;;;;;;;;5021950;28;20108;-73
2023/12/03 04:01:19;;;;;;;0.10;0.10;;;;;;;;;;5027948;28;20050;-73
2023/12/03 04:03:46;;;;;;;0.10;0.10;;;;;;;;;;5027664;28;20558;-74
2023/12/03 04:06:12;;;;;;;0.10;0.10;;;;;;;;;;5026512;28;20111;-74
2023/12/03 04:08:39;;;;;;;0.63;0.63;;;;;;;;;;5028757;28;20058;-74
2023/12/03 04:11:05;;;;;;;0.10;0.10;;;;;;;;;;5026603;28;20145;-74
2023/12/03 04:13:32;;;;;;;0.10;0.10;;;;;;;;;;5027755;28;20528;-74
2023/12/03 04:15:58;;;;;;;0.10;0.10;;;;;;;;;;5027071;28;20141;-73
2023/12/03 04:18:24;;;;;;;0.10;0.10;;;;;;;;;;5028897;28;20233;-73
2023/12/03 04:20:51;;;;;;;0.20;0.20;;;;;;;;;;5027097;28;20073;-74
2023/12/03 04:23:17;;;;;;;0.57;0.57;;;;;;;;;;5027509;28;20140;-74
2023/12/03 04:25:44;;;;;;;3.47;3.15;;;;;;;;;;5020925;28;20145;-74
2023/12/03 04:28:10;;;;;;;0.10;0.10;;;;;;;;;;5026458;28;20141;-74
2023/12/03 04:30:36;;;;;;;0.10;0.10;;;;;;;;;;5024718;28;20108;-74
2023/12/03 04:33:03;;;;;;;0.68;0.68;;;;;;;;;;5023127;28;20054;-74
2023/12/03 04:35:29;;;;;;;0.10;0.10;;;;;;;;;;5027036;28;20141;-74
2023/12/03 04:37:56;;;;;;;0.10;0.10;;;;;;;;;;5026125;28;20500;-74
2023/12/03 04:40:22;;;;;;;0.10;0.10;;;;;;;;;;5026054;28;20883;-74
2023/12/03 04:42:48;;;;;;;0.10;0.10;;;;;;;;;;5025177;28;20060;-74
2023/12/03 04:45:15;;;;;;;0.10;0.10;;;;;;;;;;5026451;28;20069;-74
2023/12/03 04:47:41;;;;;;;0.10;0.10;;;;;;;;;;5026654;28;20139;-74
2023/12/03 04:50:08;;;;;;;0.10;0.10;;;;;;;;;;5026201;28;20160;-74
2023/12/03 04:52:34;;;;;;;0.10;0.10;;;;;;;;;;5025524;28;20142;-74
2023/12/03 04:55:00;;;;;;;0.10;0.10;;;;;;;;;;5026618;28;20517;-74
2023/12/03 04:57:27;;;;;;;0.10;0.10;;;;;;;;;;5026334;28;20152;-74
2023/12/03 04:59:53;;;;;;;0.10;0.10;;;;;;;;;;5025652;28;20050;-73
2023/12/03 05:02:19;;;;;;;0.10;0.10;;;;;;;;;;5021639;28;20057;-74
2023/12/03 05:04:46;;;;;;;0.10;0.10;;;;;;;;;;5026056;28;20101;-73
2023/12/03 05:07:12;;;;;;;0.10;0.10;;;;;;;;;;5026656;28;20115;-74
2023/12/03 05:09:39;;;;;;;4.57;3.92;;;;;;;;;;5026091;28;20061;-73
2023/12/03 05:12:06;;;;;;;0.10;0.10;;;;;;;;;;5025728;28;20054;-74
2023/12/03 05:14:32;;;;;;;0.10;0.10;;;;;;;;;;5024505;28;20054;-74
2023/12/03 05:16:59;;;;;;;0.10;0.10;;;;;;;;;;5026231;28;20136;-74
2023/12/03 05:19:26;;;;;;;0.10;0.10;;;;;;;;;;4988826;28;1082313;-74
2023/12/03 05:21:52;;;;;;;0.20;0.20;;;;;;;;;;5027163;28;20065;-73
2023/12/03 05:24:19;;;;;;;0.10;0.10;;;;;;;;;;5027366;28;20107;-73
2023/12/03 05:26:45;;;;;;;0.10;0.10;;;;;;;;;;5028418;28;20089;-73
2023/12/03 05:29:11;;;;;;;0.10;0.10;;;;;;;;;;5000974;28;20133;-74
2023/12/03 05:31:43;;;;;;;0.55;0.55;;;;;;;;;;5026621;28;20136;-73
2023/12/03 05:34:10;;;;;;;0.20;0.20;;;;;;;;;;5026738;28;20112;-73
2023/12/03 05:36:36;;;;;;;0.10;0.10;;;;;;;;;;5027290;28;20058;-73
2023/12/03 05:39:04;;;;;;;0.10;0.10;;;;;;;;;;5020670;28;20498;-73
2023/12/03 05:41:30;;;;;;;0.10;0.10;;;;;;;;;;5030692;28;20427;-73
2023/12/03 05:43:56;;;;;;;0.10;0.10;;;;;;;;;;5029109;28;20077;-73
2023/12/03 05:46:23;;;;;;;0.10;0.10;;;;;;;;;;4994725;28;20054;-73
2023/12/03 05:48:49;;;;;;;0.10;0.10;;;;;;;;;;5029771;28;20053;-73
2023/12/03 05:51:16;;;;;;;0.10;0.10;;;;;;;;;;5030570;28;20145;-73
2023/12/03 05:53:42;;;;;;;0.10;0.10;;;;;;;;;;4994633;28;20441;-73
2023/12/03 05:56:09;;;;;;;0.03;0.03;;;;;;;;;;5029897;28;20061;-73
2023/12/03 05:58:35;;;;;;;0.10;0.10;;;;;;;;;;5030831;28;20092;-73
2023/12/03 06:01:02;;;;;;;0.00;0.00;;;;;;;;;;5037050;28;20131;-73
2023/12/03 06:03:28;;;;;;;0.30;0.30;;;;;;;;;;5035468;28;20104;-73
2023/12/03 06:05:55;;;;;;;0.10;0.10;;;;;;;;;;5012695;28;20054;-73
2023/12/03 06:08:21;;;;;;;0.25;0.25;;;;;;;;;;4999365;28;20058;-73
2023/12/03 06:10:47;;;;;;;0.10;0.10;;;;;;;;;;5028706;28;20060;-73
2023/12/03 06:13:14;;;;;;;0.00;0.00;;;;;;;;;;5030562;28;20061;-73
2023/12/03 06:15:40;;;;;;;0.13;0.13;;;;;;;;;;5030768;28;20054;-74
2023/12/03 06:18:08;;;;;;;0.00;0.00;;;;;;;;;;5029610;28;20050;-74
2023/12/03 06:20:34;;;;;;;0.03;0.03;;;;;;;;;;5026835;28;20068;-74
2023/12/03 06:23:01;;;;;;;0.10;0.10;;;;;;;;;;5028198;28;20064;-73
2023/12/03 06:25:27;;;;;;;0.10;0.10;;;;;;;;;;5030265;28;20050;-73
2023/12/03 06:27:53;;;;;;;0.00;0.00;;;;;;;;;;5029829;28;20061;-74
2023/12/03 06:30:20;;;;;;;0.10;0.10;;;;;;;;;;5029910;28;20054;-73
2023/12/03 06:32:47;;;;;;;0.10;0.10;;;;;;;;;;5026119;28;20046;-73
2023/12/03 06:35:15;;;;;;;0.40;0.40;;;;;;;;;;5026882;28;20054;-74
2023/12/03 06:37:42;;;;;;;0.00;0.00;;;;;;;;;;5028575;28;20046;-74
2023/12/03 06:40:08;;;;;;;0.10;0.10;;;;;;;;;;5030173;28;20058;-73
2023/12/03 06:42:35;;;;;;;0.10;0.10;;;;;;;;;;5028517;28;20064;-74
2023/12/03 06:45:01;;;;;;;0.10;0.10;;;;;;;;;;5026083;28;20049;-74
2023/12/03 06:47:27;;;;;;;0.00;0.00;;;;;;;;;;5029007;28;20140;-73
2023/12/03 06:49:54;;;;;;;0.08;0.08;;;;;;;;;;5027427;28;20148;-74
2023/12/03 06:52:20;;;;;;;0.00;0.00;;;;;;;;;;5028327;28;20133;-74
2023/12/03 06:54:47;;;;;;;0.20;0.20;;;;;;;;;;5030081;28;20140;-74
2023/12/03 06:57:13;;;;;;;0.10;0.10;;;;;;;;;;5026129;28;20049;-74
2023/12/03 06:59:40;;;;;;;0.08;0.08;;;;;;;;;;5021449;28;20107;-74
2023/12/03 07:02:06;;;;;;;1.10;1.10;;;;;;;;;;5024062;28;20653;-74
2023/12/03 07:04:32;;;;;;;0.00;0.00;;;;;;;;;;5024866;28;20539;-74
2023/12/03 07:06:59;;;;;;;0.10;0.10;;;;;;;;;;5027305;28;20058;-74
2023/12/03 07:09:30;;;;;;;0.03;0.03;;;;;;;;;;5026536;28;20494;-74
2023/12/03 07:12:05;;;;;;;0.10;0.10;;;;;;;;;;5028617;28;20054;-74
2023/12/03 07:14:31;;;;;;;0.10;0.10;;;;;;;;;;5030201;28;20522;-74
2023/12/03 07:16:58;;;;;;;0.10;0.10;;;;;;;;;;5027034;28;20085;-74
2023/12/03 07:19:24;;;;;;;2.78;2.08;;;;;;;;;;5029426;28;20058;-74
2023/12/03 07:21:50;;;;;;;0.10;0.10;;;;;;;;;;5027926;28;20575;-74
2023/12/03 07:24:17;;;;;;;0.10;0.10;;;;;;;;;;5029257;28;20054;-74
2023/12/03 07:26:44;;;;;;;0.10;0.10;;;;;;;;;;5029935;28;20054;-74
2023/12/03 07:29:10;;;;;;;0.10;0.10;;;;;;;;;;5028401;28;20061;-74
2023/12/03 07:31:37;;;;;;;0.10;0.10;;;;;;;;;;5028431;28;20050;-74
2023/12/03 07:34:03;;;;;;;0.10;0.10;;;;;;;;;;5028844;28;20108;-74
2023/12/03 07:36:30;;;;;;;0.10;0.10;;;;;;;;;;5029463;28;20058;-74
2023/12/03 07:38:56;;;;;;;0.00;0.00;;;;;;;;;;5023590;28;20172;-74
2023/12/03 07:41:23;;;;;;;0.10;0.10;;;;;;;;;;5078561;23;20145;-77
2023/12/03 07:43:49;;;;;;;0.30;0.30;;;;;;;;;;4992656;28;20097;-78
2023/12/03 07:46:16;;;;;;;0.10;0.10;;;;;;;;;;4988403;28;20094;-77
2023/12/03 07:48:44;;;;;;;0.05;0.05;;;;;;;;;;4991459;28;20050;-77
2023/12/03 07:51:11;;;;;;;0.10;0.10;;;;;;;;;;4992039;28;20057;-77
2023/12/03 07:53:38;;;;;;;0.63;0.63;;;;;;;;;;5006884;28;20054;-78
2023/12/03 07:56:05;;;;;;;0.00;0.00;;;;;;;;;;5007518;28;20050;-78
2023/12/03 07:58:32;;;;;;;0.08;0.08;;;;;;;;;;5008902;28;21100;-78
2023/12/03 08:01:01;;;;;;;0.10;0.10;;;;;;;;;;5008414;28;20106;-77
2023/12/03 08:03:27;;;;;;;0.10;0.10;;;;;;;;;;5008823;28;20630;-78
2023/12/03 08:05:54;;;;;;;0.08;0.08;;;;;;;;;;5007882;28;20063;-78
2023/12/03 08:08:20;;;;;;;0.00;0.00;;;;;;;;;;5008766;28;20117;-78
2023/12/03 08:10:47;;;;;;;0.00;0.00;;;;;;;;;;4991216;28;20575;-78
2023/12/03 08:13:16;;;;;;;0.10;0.10;;;;;;;;;;5002080;28;20070;-78
2023/12/03 08:15:42;;;;;;;2.08;1.90;;;;;;;;;;5008995;28;20050;-78
2023/12/03 08:18:09;;;;;;;0.10;0.10;;;;;;;;;;5005912;28;20054;-78
2023/12/03 08:20:35;;;;;;;0.10;0.10;;;;;;;;;;4990884;28;20086;-78
2023/12/03 08:23:02;;;;;;;0.00;0.00;;;;;;;;;;5007912;28;20141;-78
2023/12/03 08:25:28;;;;;;;0.10;0.10;;;;;;;;;;5007839;28;20054;-77
2023/12/03 08:27:55;;;;;;;6.35;5.90;;;;;;;;;;5008301;28;20058;-78
2023/12/03 08:30:21;;;;;;;0.10;0.10;;;;;;;;;;5007329;28;20085;-78
2023/12/03 08:32:47;;;;;;;0.10;0.10;;;;;;;;;;5004799;28;20065;-78
2023/12/03 08:35:14;;;;;;;0.10;0.10;;;;;;;;;;5009074;28;20061;-78
2023/12/03 08:37:40;;;;;;;0.10;0.10;;;;;;;;;;5004657;28;20405;-79
2023/12/03 08:40:08;;;;;;;0.10;0.10;;;;;;;;;;5005504;28;20054;-78
2023/12/03 08:42:35;;;;;;;0.00;0.00;;;;;;;;;;4990966;28;20066;-79
2023/12/03 08:45:02;;;;;;;0.10;0.10;;;;;;;;;;5006484;28;20060;-77
2023/12/03 08:47:29;;;;;;;0.10;0.10;;;;;;;;;;4986962;28;20093;-78
2023/12/03 08:49:55;;;;;;;0.10;0.10;;;;;;;;;;5004612;28;20055;-78
2023/12/03 08:52:22;;;;;;;0.10;0.10;;;;;;;;;;5004150;28;20054;-78
2023/12/03 08:54:48;;;;;;;0.03;0.03;;;;;;;;;;5001564;28;20661;-78
2023/12/03 08:57:15;;;;;;;0.10;0.10;;;;;;;;;;5000712;28;20050;-78
2023/12/03 08:59:41;;;;;;;0.10;0.10;;;;;;;;;;5005914;28;20543;-78
2023/12/03 09:02:08;;;;;;;1.70;1.65;;;;;;;;;;5009512;28;20109;-76
2023/12/03 09:04:36;;;;;;;0.40;0.40;;;;;;;;;;5006951;28;20104;-77
2023/12/03 09:07:03;;;;;;;0.05;0.05;;;;;;;;;;5003231;28;20081;-78
2023/12/03 09:09:29;;;;;;;0.00;0.00;;;;;;;;;;5007641;28;20051;-78
2023/12/03 09:11:56;;;;;;;0.10;0.10;;;;;;;;;;5002072;28;20090;-78
2023/12/03 09:14:25;;;;;;;0.10;0.10;;;;;;;;;;5005804;28;20085;-78
2023/12/03 09:16:52;;;;;;;0.00;0.00;;;;;;;;;;4999697;28;20061;-78
2023/12/03 09:19:18;;;;;;;0.50;0.50;;;;;;;;;;4987865;28;20069;-76
2023/12/03 09:21:45;;;;;;;0.10;0.10;;;;;;;;;;5004296;28;20046;-77
2023/12/03 09:24:12;;;;;;;0.30;0.30;;;;;;;;;;5004732;28;20476;-77
2023/12/03 09:26:38;;;;;;;0.10;0.10;;;;;;;;;;5002563;28;20118;-77
2023/12/03 09:29:05;;;;;;;0.10;0.10;;;;;;;;;;5000905;28;20057;-78
2023/12/03 09:31:32;;;;;;;0.10;0.10;;;;;;;;;;4988346;28;20054;-78
2023/12/03 09:33:58;;;;;;;0.10;0.10;;;;;;;;;;4996333;28;20062;-77
2023/12/03 09:36:25;;;;;;;0.10;0.10;;;;;;;;;;4993075;28;20539;-78
2023/12/03 09:38:52;;;;;;;0.10;0.10;;;;;;;;;;5005701;28;20058;-77
2023/12/03 09:41:19;;;;;;;0.10;0.10;;;;;;;;;;5003569;28;20054;-77
2023/12/03 09:43:47;;;;;;;0.10;0.10;;;;;;;;;;4988260;28;20050;-77
2023/12/03 09:46:13;;;;;;;0.00;0.00;;;;;;;;;;5003570;28;21163;-78
2023/12/03 09:48:43;;;;;;;0.10;0.10;;;;;;;;;;5003548;28;20065;-78
2023/12/03 09:51:11;;;;;;;0.10;0.10;;;;;;;;;;5002057;28;20054;-78
2023/12/03 09:53:41;;;;;;;0.10;0.10;;;;;;;;;;5003662;28;20074;-78
2023/12/03 09:56:08;;;;;;;0.20;0.20;;;;;;;;;;5002456;28;20050;-78
2023/12/03 09:58:35;;;;;;;0.03;0.03;;;;;;;;;;5005649;28;20056;-78
2023/12/03 10:01:01;;;;;;;0.25;0.25;;;;;;;;;;5006978;28;20058;-78
2023/12/03 10:03:28;;;;;;;0.10;0.10;;;;;;;;;;5002079;28;21347;-78
2023/12/03 10:05:55;;;;;;;0.10;0.10;;;;;;;;;;5003487;28;20085;-78
2023/12/03 10:08:21;;;;;;;0.10;0.10;;;;;;;;;;5005055;28;20991;-76
2023/12/03 10:10:53;;;;;;;0.10;0.10;;;;;;;;;;4997799;28;20534;-76
2023/12/03 10:13:20;;;;;;;0.73;0.73;;;;;;;;;;5003606;28;20072;-75
2023/12/03 10:15:46;;;;;;;0.10;0.10;;;;;;;;;;5004839;28;20051;-76
2023/12/03 10:18:13;;;;;;;0.10;0.10;;;;;;;;;;5007181;28;20057;-76
2023/12/03 10:20:40;;;;;;;0.20;0.20;;;;;;;;;;5005649;28;20051;-76
2023/12/03 10:23:13;;;;;;;0.10;0.10;;;;;;;;;;4999012;28;20058;-76
2023/12/03 10:25:40;;;;;;;0.10;0.10;;;;;;;;;;5006244;28;20065;-75
2023/12/03 10:28:07;;;;;;;0.10;0.10;;;;;;;;;;5008984;28;20074;-76
2023/12/03 10:30:33;;;;;;;0.10;0.10;;;;;;;;;;5007126;28;20094;-76
2023/12/03 10:33:00;;;;;;;0.10;0.10;;;;;;;;;;5000204;28;20136;-76
2023/12/03 10:35:32;;;;;;;0.10;0.10;;;;;;;;;;5007612;28;20452;-75
2023/12/03 10:38:12;;;;;;;2.20;2.08;;;;;;;;;;5008803;28;20058;-75
2023/12/03 10:40:49;;;;;;;0.10;0.10;;;;;;;;;;4993332;28;20518;-76
2023/12/03 10:43:48;;;;;;;0.10;0.10;;;;;;;;;;5006034;28;20054;-76
2023/12/03 10:46:31;;;;;;;0.10;0.10;;;;;;;;;;5002240;28;20066;-76
2023/12/03 10:49:05;;;;;;;0.10;0.10;;;;;;;;;;5002794;28;20646;-74
2023/12/03 10:51:51;;;;;;;0.00;0.00;;;;;;;;;;5005420;28;20492;-75
2023/12/03 10:54:20;;;;;;;0.22;0.22;;;;;;;;;;4990994;28;20057;-75
2023/12/03 10:56:56;;;;;;;0.10;0.10;;;;;;;;;;5010067;28;20055;-75
2023/12/03 10:59:40;;;;;;;0.10;0.10;;;;;;;;;;4982238;28;20054;-75
2023/12/03 11:02:25;;;;;;;0.10;0.10;;;;;;;;;;5002468;28;20610;-75
2023/12/03 11:05:04;;;;;;;0.13;0.13;;;;;;;;;;4990984;28;20093;-75
2023/12/03 11:07:33;;;;;;;0.10;0.10;;;;;;;;;;5013491;28;20065;-75
2023/12/03 11:10:03;;;;;;;0.10;0.10;;;;;;;;;;5005303;28;20062;-75
2023/12/03 11:12:29;;;;;;;0.10;0.10;;;;;;;;;;4989311;28;20054;-76
2023/12/03 11:15:00;;;;;;;0.10;0.10;;;;;;;;;;5008205;28;20507;-75
2023/12/03 11:17:33;;;;;;;0.10;0.10;;;;;;;;;;5001851;28;20078;-75
2023/12/03 11:20:09;;;;;;;1.08;1.08;;;;;;;;;;5001584;28;20070;-74
2023/12/03 11:22:45;;;;;;;0.10;0.10;;;;;;;;;;5007165;28;20050;-75
2023/12/03 11:25:12;;;;;;;1.27;1.17;;;;;;;;;;5011405;28;20061;-75
2023/12/03 11:27:43;;;;;;;0.10;0.10;;;;;;;;;;4990135;28;20428;-75
2023/12/03 11:30:10;;;;;;;0.10;0.10;;;;;;;;;;5008940;28;20101;-75
2023/12/03 11:32:36;;;;;;;0.10;0.10;;;;;;;;;;4990005;28;20639;-75
2023/12/03 11:35:14;;;;;;;0.52;0.52;;;;;;;;;;4987121;28;20142;-74
2023/12/03 11:37:43;;;;;;;0.10;0.10;;;;;;;;;;5006756;28;20064;-74
2023/12/03 11:40:09;;;;;;;0.25;0.25;;;;;;;;;;5006871;28;22628;-75
2023/12/03 11:42:43;;;;;;;0.10;0.10;;;;;;;;;;5005927;28;20059;-74
2023/12/03 11:45:18;;;;;;;0.73;0.73;;;;;;;;;;5001006;28;20113;-74
2023/12/03 11:47:45;;;;;;;0.10;0.10;;;;;;;;;;4990350;28;20058;-75
2023/12/03 11:50:13;;;;;;;0.10;0.10;;;;;;;;;;5006521;28;20097;-75
2023/12/03 11:52:41;;;;;;;0.10;0.10;;;;;;;;;;5000282;28;20061;-74
2023/12/03 11:55:14;;;;;;;0.10;0.10;;;;;;;;;;4990806;28;20054;-75
2023/12/03 11:57:40;;;;;;;0.15;0.15;;;;;;;;;;4999429;28;20513;-75
2023/12/03 12:00:08;;;;;;;0.10;0.10;;;;;;;;;;4990942;28;20074;-74
2023/12/03 12:02:36;;;;;;;0.10;0.10;;;;;;;;;;5002594;28;20094;-75
2023/12/03 12:05:04;;;;;;;0.10;0.10;;;;;;;;;;5005638;28;21037;-74
2023/12/03 12:07:31;;;;;;;0.82;0.82;;;;;;;;;;5003560;28;20058;-77
2023/12/03 12:09:57;;;;;;;0.10;0.10;;;;;;;;;;5003427;28;20185;-75
2023/12/03 12:12:24;;;;;;;0.30;0.30;;;;;;;;;;5002228;28;20061;-75
2023/12/03 12:14:50;;;;;;;0.10;0.10;;;;;;;;;;5003769;28;20054;-75
2023/12/03 12:17:19;;;;;;;0.10;0.10;;;;;;;;;;5008521;28;21205;-75
2023/12/03 12:19:49;;;;;;;0.75;0.75;;;;;;;;;;5004122;28;20054;-75
2023/12/03 12:22:16;;;;;;;0.10;0.10;;;;;;;;;;5004885;28;20496;-75
2023/12/03 12:24:46;;;;;;;0.10;0.10;;;;;;;;;;5004243;28;20086;-74
2023/12/03 12:27:13;;;;;;;0.10;0.10;;;;;;;;;;5008734;28;20114;-74
2023/12/03 12:29:39;;;;;;;0.10;0.10;;;;;;;;;;4983853;28;20105;-74
2023/12/03 12:32:06;;;;;;;0.20;0.20;;;;;;;;;;5002075;28;20547;-75
2023/12/03 12:34:34;;;;;;;0.20;0.20;;;;;;;;;;5004746;28;20606;-75
2023/12/03 12:37:04;;;;;;;0.10;0.10;;;;;;;;;;5002799;28;20137;-74
2023/12/03 12:39:31;;;;;;;0.10;0.10;;;;;;;;;;4994478;28;20054;-76
2023/12/03 12:42:01;;;;;;;2.75;2.50;;;;;;;;;;5001546;28;20061;-76
2023/12/03 12:44:41;;;;;;;0.10;0.10;;;;;;;;;;5008700;28;20117;-75
2023/12/03 12:47:15;;;;;;;0.10;0.10;;;;;;;;;;4989796;28;20054;-74
2023/12/03 12:49:50;;;;;;;0.13;0.13;;;;;;;;;;5004627;28;20596;-75
2023/12/03 12:52:16;;;;;;;0.65;0.65;;;;;;;;;;5004263;28;20051;-75
2023/12/03 12:54:44;;;;;;;0.10;0.10;;;;;;;;;;4985057;28;20695;-74
2023/12/03 12:57:12;;;;;;;0.10;0.10;;;;;;;;;;5004903;28;20158;-75
2023/12/03 12:59:38;;;;;;;0.20;0.20;;;;;;;;;;5005665;28;20057;-75
2023/12/03 13:02:06;;;;;;;0.17;0.17;;;;;;;;;;5004018;28;20058;-75
2023/12/03 13:04:33;;;;;;;0.10;0.10;;;;;;;;;;5006430;28;20423;-75
2023/12/03 13:07:03;;;;;;;0.10;0.10;;;;;;;;;;5009719;28;20780;-75
2023/12/03 13:09:29;;;;;;;2.42;0.68;;;;;;;;;;5004123;28;20498;-74
2023/12/03 13:11:56;;;;;;;0.17;0.17;;;;;;;;;;4996578;28;20105;-73
2023/12/03 13:14:22;;;;;;;0.10;0.10;;;;;;;;;;5002903;28;20062;-75
2023/12/03 13:16:49;;;;;;;0.10;0.10;;;;;;;;;;4986793;28;20058;-74
2023/12/03 13:19:18;;;;;;;0.30;0.30;;;;;;;;;;4997981;28;20054;-74
2023/12/03 13:21:45;;;;;;;0.20;0.20;;;;;;;;;;4986877;28;20104;-75
2023/12/03 13:24:12;;;;;;;0.10;0.10;;;;;;;;;;5002294;28;20081;-74
2023/12/03 13:26:50;;;;;;;0.22;0.20;;;;;;;;;;4988614;28;20121;-74
2023/12/03 13:29:20;;;;;;;0.20;0.20;;;;;;;;;;5004094;28;20054;-75
2023/12/03 13:31:49;;;;;;;2.33;2.22;;;;;;;;;;5001369;28;20051;-74
2023/12/03 13:34:16;;;;;;;0.10;0.10;;;;;;;;;;4997743;28;20057;-75
2023/12/03 13:36:42;;;;;;;1.00;1.00;;;;;;;;;;5005851;28;20835;-75
2023/12/03 13:39:11;;;;;;;0.10;0.10;;;;;;;;;;5004499;28;20054;-75
2023/12/03 13:41:41;;;;;;;0.20;0.20;;;;;;;;;;5002385;28;20192;-75
2023/12/03 13:44:08;;;;;;;0.10;0.10;;;;;;;;;;5002140;28;20108;-76
2023/12/03 13:46:34;;;;;;;0.10;0.10;;;;;;;;;;5060378;23;20067;-71
2023/12/03 13:49:01;;;;;;;0.10;0.10;;;;;;;;;;4981212;28;20109;-71
2023/12/03 13:51:28;;;;;;;0.15;0.15;;;;;;;;;;4966204;28;20464;-74
2023/12/03 13:53:55;;;;;;;0.10;0.10;;;;;;;;;;4988944;28;20058;-70
2023/12/03 13:56:21;;;;;;;0.10;0.10;;;;;;;;;;4984011;28;20061;-70
2023/12/03 13:58:48;;;;;;;0.20;0.20;;;;;;;;;;4984542;28;22835;-69
2023/12/03 14:01:14;;;;;;;0.10;0.10;;;;;;;;;;4991995;28;20054;-68
2023/12/03 14:03:42;;;;;;;0.15;0.15;;;;;;;;;;4990077;28;20055;-75
2023/12/03 14:06:10;;;;;;;0.10;0.10;;;;;;;;;;4992495;28;20059;-72
2023/12/03 14:08:36;;;;;;;0.10;0.10;;;;;;;;;;4997360;28;20050;-69
2023/12/03 14:11:03;;;;;;;0.10;0.10;;;;;;;;;;4990010;28;20575;-72
2023/12/03 14:13:32;;;;;;;0.10;0.10;;;;;;;;;;4994005;28;20106;-71
2023/12/03 14:16:00;;;;;;;0.15;0.15;;;;;;;;;;4988178;28;20544;-72
2023/12/03 14:18:29;;;;;;;0.10;0.10;;;;;;;;;;4992627;28;20066;-71
2023/12/03 14:20:58;;;;;;;0.10;0.10;;;;;;;;;;4989541;28;20085;-72
2023/12/03 14:23:28;;;;;;;0.10;0.10;;;;;;;;;;4972758;28;20086;-71
2023/12/03 14:25:56;;;;;;;0.22;0.22;;;;;;;;;;5000224;28;20059;-69
2023/12/03 14:28:23;;;;;;;0.10;0.10;;;;;;;;;;4996546;28;20066;-69
2023/12/03 14:30:51;;;;;;;0.10;0.10;;;;;;;;;;4987519;28;20572;-71
2023/12/03 14:33:20;;;;;;;2.72;2.53;;;;;;;;;;4976506;28;20050;-71
2023/12/03 14:35:50;;;;;;;0.10;0.10;;;;;;;;;;4977451;28;20489;-73
2023/12/03 14:38:18;;;;;;;0.10;0.10;;;;;;;;;;4976545;28;20608;-71
2023/12/03 14:40:46;;;;;;;0.17;0.17;;;;;;;;;;4975662;28;20047;-71
2023/12/03 14:43:14;;;;;;;0.17;0.17;;;;;;;;;;4997801;28;20051;-72
2023/12/03 14:45:42;;;;;;;0.10;0.10;;;;;;;;;;4973138;28;20429;-69